sensor_id;sensor_type;location;lat;lon;timestamp;P1;durP1;ratioP1;P2;durP2;ratioP2
61960;SDS011;47923;42.506;24.192;2023-06-19T00:01:57;13.23;;;10.15;;
61960;SDS011;47923;42.506;24.192;2023-06-19T00:04:23;14.65;;;10.95;;
61960;SDS011;47923;42.506;24.192;2023-06-19T00:06:49;15.02;;;10.43;;
61960;SDS011;47923;42.506;24.192;2023-06-19T00:09:16;13.75;;;10.35;;
61960;SDS011;47923;42.506;24.192;2023-06-19T00:11:42;14.88;;;10.57;;
61960;SDS011;47923;42.506;24.192;2023-06-19T00:14:08;12.77;;;10.23;;
61960;SDS011;47923;42.506;24.192;2023-06-19T00:16:33;14.25;;;10.63;;
61960;SDS011;47923;42.506;24.192;2023-06-19T00:18:59;12.48;;;10.05;;
61960;SDS011;47923;42.506;24.192;2023-06-19T00:21:25;11.52;;;9.18;;
61960;SDS011;47923;42.506;24.192;2023-06-19T00:23:51;13.40;;;9.20;;
61960;SDS011;47923;42.506;24.192;2023-06-19T00:26:17;12.15;;;9.40;;
61960;SDS011;47923;42.506;24.192;2023-06-19T00:28:43;14.20;;;9.18;;
61960;SDS011;47923;42.506;24.192;2023-06-19T00:31:10;12.23;;;9.07;;
61960;SDS011;47923;42.506;24.192;2023-06-19T00:33:39;13.77;;;9.45;;
61960;SDS011;47923;42.506;24.192;2023-06-19T00:36:11;12.13;;;8.93;;
61960;SDS011;47923;42.506;24.192;2023-06-19T00:38:40;11.30;;;9.05;;
61960;SDS011;47923;42.506;24.192;2023-06-19T00:41:07;11.73;;;8.15;;
61960;SDS011;47923;42.506;24.192;2023-06-19T00:43:33;12.13;;;8.82;;
61960;SDS011;47923;42.506;24.192;2023-06-19T00:46:00;11.10;;;8.60;;
61960;SDS011;47923;42.506;24.192;2023-06-19T00:48:26;11.73;;;8.55;;
61960;SDS011;47923;42.506;24.192;2023-06-19T00:50:53;14.77;;;9.05;;
61960;SDS011;47923;42.506;24.192;2023-06-19T00:53:20;11.43;;;9.15;;
61960;SDS011;47923;42.506;24.192;2023-06-19T00:55:46;13.77;;;8.75;;
61960;SDS011;47923;42.506;24.192;2023-06-19T00:58:13;11.60;;;9.77;;
61960;SDS011;47923;42.506;24.192;2023-06-19T01:00:38;16.75;;;9.07;;
61960;SDS011;47923;42.506;24.192;2023-06-19T01:03:04;14.05;;;8.57;;
61960;SDS011;47923;42.506;24.192;2023-06-19T01:05:30;11.85;;;8.98;;
61960;SDS011;47923;42.506;24.192;2023-06-19T01:07:59;12.55;;;8.80;;
61960;SDS011;47923;42.506;24.192;2023-06-19T01:10:47;11.07;;;8.70;;
61960;SDS011;47923;42.506;24.192;2023-06-19T01:13:22;14.05;;;9.07;;
61960;SDS011;47923;42.506;24.192;2023-06-19T01:15:50;13.18;;;8.25;;
61960;SDS011;47923;42.506;24.192;2023-06-19T01:18:16;10.55;;;8.25;;
61960;SDS011;47923;42.506;24.192;2023-06-19T01:20:42;10.07;;;8.13;;
61960;SDS011;47923;42.506;24.192;2023-06-19T01:23:09;12.13;;;7.97;;
61960;SDS011;47923;42.506;24.192;2023-06-19T01:25:35;12.38;;;8.82;;
61960;SDS011;47923;42.506;24.192;2023-06-19T01:28:02;11.50;;;8.77;;
61960;SDS011;47923;42.506;24.192;2023-06-19T01:30:29;10.77;;;7.80;;
61960;SDS011;47923;42.506;24.192;2023-06-19T01:35:51;11.35;;;8.88;;
61960;SDS011;47923;42.506;24.192;2023-06-19T01:38:17;11.57;;;8.07;;
61960;SDS011;47923;42.506;24.192;2023-06-19T01:40:46;12.82;;;8.50;;
61960;SDS011;47923;42.506;24.192;2023-06-19T01:43:14;10.32;;;7.82;;
61960;SDS011;47923;42.506;24.192;2023-06-19T01:45:41;11.02;;;8.02;;
61960;SDS011;47923;42.506;24.192;2023-06-19T01:48:07;10.75;;;7.80;;
61960;SDS011;47923;42.506;24.192;2023-06-19T01:50:33;13.38;;;8.00;;
61960;SDS011;47923;42.506;24.192;2023-06-19T01:52:59;12.65;;;7.88;;
61960;SDS011;47923;42.506;24.192;2023-06-19T01:55:24;12.75;;;8.35;;
61960;SDS011;47923;42.506;24.192;2023-06-19T01:57:50;10.65;;;8.02;;
61960;SDS011;47923;42.506;24.192;2023-06-19T02:00:16;11.10;;;8.38;;
61960;SDS011;47923;42.506;24.192;2023-06-19T02:02:42;10.93;;;7.85;;
61960;SDS011;47923;42.506;24.192;2023-06-19T02:05:08;11.13;;;8.02;;
61960;SDS011;47923;42.506;24.192;2023-06-19T02:07:34;11.02;;;7.32;;
61960;SDS011;47923;42.506;24.192;2023-06-19T02:10:00;10.75;;;7.90;;
61960;SDS011;47923;42.506;24.192;2023-06-19T02:12:26;14.73;;;8.77;;
61960;SDS011;47923;42.506;24.192;2023-06-19T02:14:52;10.27;;;7.78;;
61960;SDS011;47923;42.506;24.192;2023-06-19T02:17:17;12.02;;;8.35;;
61960;SDS011;47923;42.506;24.192;2023-06-19T02:19:43;11.13;;;8.10;;
61960;SDS011;47923;42.506;24.192;2023-06-19T02:22:08;12.88;;;8.00;;
61960;SDS011;47923;42.506;24.192;2023-06-19T02:24:34;11.13;;;8.18;;
61960;SDS011;47923;42.506;24.192;2023-06-19T02:27:02;15.60;;;8.73;;
61960;SDS011;47923;42.506;24.192;2023-06-19T02:29:27;11.85;;;8.77;;
61960;SDS011;47923;42.506;24.192;2023-06-19T02:31:54;15.75;;;8.48;;
61960;SDS011;47923;42.506;24.192;2023-06-19T02:34:20;12.95;;;8.63;;
61960;SDS011;47923;42.506;24.192;2023-06-19T02:36:49;13.20;;;8.68;;
61960;SDS011;47923;42.506;24.192;2023-06-19T02:39:15;12.60;;;8.75;;
61960;SDS011;47923;42.506;24.192;2023-06-19T02:41:40;11.57;;;8.55;;
61960;SDS011;47923;42.506;24.192;2023-06-19T02:44:10;11.23;;;7.78;;
61960;SDS011;47923;42.506;24.192;2023-06-19T02:46:37;12.57;;;8.07;;
61960;SDS011;47923;42.506;24.192;2023-06-19T02:49:02;11.85;;;7.45;;
61960;SDS011;47923;42.506;24.192;2023-06-19T02:51:28;13.13;;;8.48;;
61960;SDS011;47923;42.506;24.192;2023-06-19T02:53:54;10.57;;;8.13;;
61960;SDS011;47923;42.506;24.192;2023-06-19T02:56:19;12.02;;;8.40;;
61960;SDS011;47923;42.506;24.192;2023-06-19T02:58:45;12.20;;;8.02;;
61960;SDS011;47923;42.506;24.192;2023-06-19T03:01:11;12.00;;;8.55;;
61960;SDS011;47923;42.506;24.192;2023-06-19T03:03:36;10.88;;;8.52;;
61960;SDS011;47923;42.506;24.192;2023-06-19T03:06:05;12.18;;;8.05;;
61960;SDS011;47923;42.506;24.192;2023-06-19T03:08:36;11.25;;;7.55;;
61960;SDS011;47923;42.506;24.192;2023-06-19T03:11:02;12.40;;;8.15;;
61960;SDS011;47923;42.506;24.192;2023-06-19T03:13:33;11.63;;;8.20;;
61960;SDS011;47923;42.506;24.192;2023-06-19T03:16:08;15.80;;;8.20;;
61960;SDS011;47923;42.506;24.192;2023-06-19T03:18:34;13.45;;;8.40;;
61960;SDS011;47923;42.506;24.192;2023-06-19T03:21:00;15.73;;;9.77;;
61960;SDS011;47923;42.506;24.192;2023-06-19T03:23:26;12.82;;;8.27;;
61960;SDS011;47923;42.506;24.192;2023-06-19T03:25:51;11.25;;;7.97;;
61960;SDS011;47923;42.506;24.192;2023-06-19T03:28:17;10.05;;;7.78;;
61960;SDS011;47923;42.506;24.192;2023-06-19T03:30:42;14.35;;;8.50;;
61960;SDS011;47923;42.506;24.192;2023-06-19T03:33:08;12.07;;;8.43;;
61960;SDS011;47923;42.506;24.192;2023-06-19T03:35:33;11.85;;;7.88;;
61960;SDS011;47923;42.506;24.192;2023-06-19T03:37:59;11.52;;;7.82;;
61960;SDS011;47923;42.506;24.192;2023-06-19T03:40:24;8.70;;;5.85;;
61960;SDS011;47923;42.506;24.192;2023-06-19T03:42:50;8.50;;;5.72;;
61960;SDS011;47923;42.506;24.192;2023-06-19T03:45:16;11.35;;;5.35;;
61960;SDS011;47923;42.506;24.192;2023-06-19T03:47:42;8.40;;;5.47;;
61960;SDS011;47923;42.506;24.192;2023-06-19T03:50:08;9.32;;;4.97;;
61960;SDS011;47923;42.506;24.192;2023-06-19T03:52:35;14.68;;;5.50;;
61960;SDS011;47923;42.506;24.192;2023-06-19T03:55:02;11.07;;;5.00;;
61960;SDS011;47923;42.506;24.192;2023-06-19T03:57:28;9.82;;;5.47;;
61960;SDS011;47923;42.506;24.192;2023-06-19T03:59:54;11.13;;;4.88;;
61960;SDS011;47923;42.506;24.192;2023-06-19T04:02:21;10.50;;;4.38;;
61960;SDS011;47923;42.506;24.192;2023-06-19T04:04:46;7.70;;;4.40;;
61960;SDS011;47923;42.506;24.192;2023-06-19T04:07:12;6.57;;;3.47;;
61960;SDS011;47923;42.506;24.192;2023-06-19T04:09:38;9.48;;;5.22;;
61960;SDS011;47923;42.506;24.192;2023-06-19T04:12:04;9.00;;;4.55;;
61960;SDS011;47923;42.506;24.192;2023-06-19T04:14:30;15.38;;;5.10;;
61960;SDS011;47923;42.506;24.192;2023-06-19T04:16:55;7.10;;;4.40;;
61960;SDS011;47923;42.506;24.192;2023-06-19T04:19:21;8.20;;;3.80;;
61960;SDS011;47923;42.506;24.192;2023-06-19T04:21:47;9.65;;;4.20;;
61960;SDS011;47923;42.506;24.192;2023-06-19T04:24:12;9.43;;;4.07;;
61960;SDS011;47923;42.506;24.192;2023-06-19T04:26:38;10.77;;;4.30;;
61960;SDS011;47923;42.506;24.192;2023-06-19T04:29:03;15.40;;;4.82;;
61960;SDS011;47923;42.506;24.192;2023-06-19T04:31:31;16.90;;;4.75;;
61960;SDS011;47923;42.506;24.192;2023-06-19T04:33:57;23.67;;;5.65;;
61960;SDS011;47923;42.506;24.192;2023-06-19T04:36:23;12.77;;;4.10;;
61960;SDS011;47923;42.506;24.192;2023-06-19T04:38:48;9.60;;;3.97;;
61960;SDS011;47923;42.506;24.192;2023-06-19T04:41:16;13.48;;;5.10;;
61960;SDS011;47923;42.506;24.192;2023-06-19T04:43:42;15.73;;;4.72;;
61960;SDS011;47923;42.506;24.192;2023-06-19T04:46:08;8.02;;;3.80;;
61960;SDS011;47923;42.506;24.192;2023-06-19T04:48:33;19.33;;;4.97;;
61960;SDS011;47923;42.506;24.192;2023-06-19T04:51:01;7.75;;;3.88;;
61960;SDS011;47923;42.506;24.192;2023-06-19T04:53:27;7.75;;;3.72;;
61960;SDS011;47923;42.506;24.192;2023-06-19T04:55:53;8.75;;;3.95;;
61960;SDS011;47923;42.506;24.192;2023-06-19T04:58:21;8.48;;;3.60;;
61960;SDS011;47923;42.506;24.192;2023-06-19T05:00:47;10.50;;;4.20;;
61960;SDS011;47923;42.506;24.192;2023-06-19T05:03:17;6.13;;;3.50;;
61960;SDS011;47923;42.506;24.192;2023-06-19T05:05:44;12.23;;;4.22;;
61960;SDS011;47923;42.506;24.192;2023-06-19T05:08:09;9.18;;;3.78;;
61960;SDS011;47923;42.506;24.192;2023-06-19T05:10:35;7.47;;;3.95;;
61960;SDS011;47923;42.506;24.192;2023-06-19T05:13:01;6.22;;;3.40;;
61960;SDS011;47923;42.506;24.192;2023-06-19T05:15:27;11.98;;;4.38;;
61960;SDS011;47923;42.506;24.192;2023-06-19T05:17:53;8.73;;;3.17;;
61960;SDS011;47923;42.506;24.192;2023-06-19T05:20:19;5.68;;;3.63;;
61960;SDS011;47923;42.506;24.192;2023-06-19T05:22:44;27.30;;;5.57;;
61960;SDS011;47923;42.506;24.192;2023-06-19T05:25:10;11.18;;;4.38;;
61960;SDS011;47923;42.506;24.192;2023-06-19T05:27:36;9.57;;;3.85;;
61960;SDS011;47923;42.506;24.192;2023-06-19T05:30:02;8.00;;;3.80;;
61960;SDS011;47923;42.506;24.192;2023-06-19T05:32:29;10.20;;;3.92;;
61960;SDS011;47923;42.506;24.192;2023-06-19T05:34:55;4.75;;;2.85;;
61960;SDS011;47923;42.506;24.192;2023-06-19T05:37:21;8.55;;;3.10;;
61960;SDS011;47923;42.506;24.192;2023-06-19T05:39:47;7.57;;;3.40;;
61960;SDS011;47923;42.506;24.192;2023-06-19T05:42:13;6.40;;;3.20;;
61960;SDS011;47923;42.506;24.192;2023-06-19T05:44:38;8.40;;;3.00;;
61960;SDS011;47923;42.506;24.192;2023-06-19T05:47:05;5.30;;;2.53;;
61960;SDS011;47923;42.506;24.192;2023-06-19T05:49:31;10.07;;;3.53;;
61960;SDS011;47923;42.506;24.192;2023-06-19T05:51:56;5.07;;;2.70;;
61960;SDS011;47923;42.506;24.192;2023-06-19T05:54:24;8.63;;;3.17;;
61960;SDS011;47923;42.506;24.192;2023-06-19T05:56:50;8.48;;;4.63;;
61960;SDS011;47923;42.506;24.192;2023-06-19T05:59:16;5.65;;;3.22;;
61960;SDS011;47923;42.506;24.192;2023-06-19T06:01:42;3.47;;;2.53;;
61960;SDS011;47923;42.506;24.192;2023-06-19T06:04:08;6.60;;;3.15;;
61960;SDS011;47923;42.506;24.192;2023-06-19T06:06:34;5.80;;;3.35;;
61960;SDS011;47923;42.506;24.192;2023-06-19T06:09:00;6.45;;;3.17;;
61960;SDS011;47923;42.506;24.192;2023-06-19T06:11:26;5.47;;;2.85;;
61960;SDS011;47923;42.506;24.192;2023-06-19T06:13:51;8.90;;;3.40;;
61960;SDS011;47923;42.506;24.192;2023-06-19T06:16:18;10.18;;;3.30;;
61960;SDS011;47923;42.506;24.192;2023-06-19T06:18:44;7.45;;;3.42;;
61960;SDS011;47923;42.506;24.192;2023-06-19T06:21:10;6.10;;;2.80;;
61960;SDS011;47923;42.506;24.192;2023-06-19T06:23:38;3.95;;;2.63;;
61960;SDS011;47923;42.506;24.192;2023-06-19T06:26:05;7.35;;;3.17;;
61960;SDS011;47923;42.506;24.192;2023-06-19T06:28:31;5.00;;;2.90;;
61960;SDS011;47923;42.506;24.192;2023-06-19T06:30:57;10.82;;;3.63;;
61960;SDS011;47923;42.506;24.192;2023-06-19T06:33:23;4.93;;;3.17;;
61960;SDS011;47923;42.506;24.192;2023-06-19T06:35:49;6.93;;;3.10;;
61960;SDS011;47923;42.506;24.192;2023-06-19T06:38:14;9.80;;;2.88;;
61960;SDS011;47923;42.506;24.192;2023-06-19T06:40:40;7.43;;;2.85;;
61960;SDS011;47923;42.506;24.192;2023-06-19T06:43:07;6.45;;;3.20;;
61960;SDS011;47923;42.506;24.192;2023-06-19T06:45:33;7.82;;;2.92;;
61960;SDS011;47923;42.506;24.192;2023-06-19T06:47:59;8.20;;;3.47;;
61960;SDS011;47923;42.506;24.192;2023-06-19T06:50:25;6.05;;;2.83;;
61960;SDS011;47923;42.506;24.192;2023-06-19T06:52:50;7.20;;;3.10;;
61960;SDS011;47923;42.506;24.192;2023-06-19T06:55:16;4.95;;;2.95;;
61960;SDS011;47923;42.506;24.192;2023-06-19T06:57:41;5.15;;;2.63;;
61960;SDS011;47923;42.506;24.192;2023-06-19T07:00:07;5.32;;;2.70;;
61960;SDS011;47923;42.506;24.192;2023-06-19T07:02:37;6.05;;;2.80;;
61960;SDS011;47923;42.506;24.192;2023-06-19T07:05:06;7.68;;;2.75;;
61960;SDS011;47923;42.506;24.192;2023-06-19T07:07:32;6.20;;;3.00;;
61960;SDS011;47923;42.506;24.192;2023-06-19T07:09:57;7.30;;;3.15;;
61960;SDS011;47923;42.506;24.192;2023-06-19T07:12:23;10.63;;;3.15;;
61960;SDS011;47923;42.506;24.192;2023-06-19T07:14:48;7.78;;;3.20;;
61960;SDS011;47923;42.506;24.192;2023-06-19T07:17:14;7.20;;;2.50;;
61960;SDS011;47923;42.506;24.192;2023-06-19T07:19:40;5.82;;;3.00;;
61960;SDS011;47923;42.506;24.192;2023-06-19T07:22:05;4.72;;;2.72;;
61960;SDS011;47923;42.506;24.192;2023-06-19T07:24:31;8.57;;;3.33;;
61960;SDS011;47923;42.506;24.192;2023-06-19T07:26:57;7.25;;;3.10;;
61960;SDS011;47923;42.506;24.192;2023-06-19T07:29:22;6.22;;;2.60;;
61960;SDS011;47923;42.506;24.192;2023-06-19T07:31:48;5.35;;;3.00;;
61960;SDS011;47923;42.506;24.192;2023-06-19T07:34:14;16.13;;;3.70;;
61960;SDS011;47923;42.506;24.192;2023-06-19T07:36:39;5.32;;;3.00;;
61960;SDS011;47923;42.506;24.192;2023-06-19T07:39:05;5.07;;;3.20;;
61960;SDS011;47923;42.506;24.192;2023-06-19T07:41:31;18.17;;;4.28;;
61960;SDS011;47923;42.506;24.192;2023-06-19T07:43:56;8.35;;;3.33;;
61960;SDS011;47923;42.506;24.192;2023-06-19T07:46:22;7.32;;;3.50;;
61960;SDS011;47923;42.506;24.192;2023-06-19T07:48:48;7.38;;;4.00;;
61960;SDS011;47923;42.506;24.192;2023-06-19T07:51:13;7.47;;;3.30;;
61960;SDS011;47923;42.506;24.192;2023-06-19T07:53:39;6.80;;;3.08;;
61960;SDS011;47923;42.506;24.192;2023-06-19T07:56:04;6.60;;;3.35;;
61960;SDS011;47923;42.506;24.192;2023-06-19T07:58:30;6.13;;;3.50;;
61960;SDS011;47923;42.506;24.192;2023-06-19T08:00:56;7.20;;;3.30;;
61960;SDS011;47923;42.506;24.192;2023-06-19T08:03:21;7.75;;;3.10;;
61960;SDS011;47923;42.506;24.192;2023-06-19T08:05:49;5.65;;;3.00;;
61960;SDS011;47923;42.506;24.192;2023-06-19T08:08:14;6.80;;;3.05;;
61960;SDS011;47923;42.506;24.192;2023-06-19T08:10:40;4.45;;;2.70;;
61960;SDS011;47923;42.506;24.192;2023-06-19T08:13:06;6.43;;;2.90;;
61960;SDS011;47923;42.506;24.192;2023-06-19T08:15:32;4.63;;;2.97;;
61960;SDS011;47923;42.506;24.192;2023-06-19T08:17:57;5.22;;;2.67;;
61960;SDS011;47923;42.506;24.192;2023-06-19T08:20:23;10.73;;;3.75;;
61960;SDS011;47923;42.506;24.192;2023-06-19T08:22:48;6.18;;;2.60;;
61960;SDS011;47923;42.506;24.192;2023-06-19T08:25:13;19.23;;;4.32;;
61960;SDS011;47923;42.506;24.192;2023-06-19T08:27:39;6.28;;;2.95;;
61960;SDS011;47923;42.506;24.192;2023-06-19T08:30:05;6.40;;;3.10;;
61960;SDS011;47923;42.506;24.192;2023-06-19T08:32:31;5.07;;;3.10;;
61960;SDS011;47923;42.506;24.192;2023-06-19T08:34:56;7.43;;;2.88;;
61960;SDS011;47923;42.506;24.192;2023-06-19T08:37:22;7.55;;;2.90;;
61960;SDS011;47923;42.506;24.192;2023-06-19T08:39:47;8.48;;;2.72;;
61960;SDS011;47923;42.506;24.192;2023-06-19T08:42:13;10.50;;;3.45;;
61960;SDS011;47923;42.506;24.192;2023-06-19T08:44:38;8.98;;;2.92;;
61960;SDS011;47923;42.506;24.192;2023-06-19T08:47:04;5.20;;;3.05;;
61960;SDS011;47923;42.506;24.192;2023-06-19T08:49:31;9.75;;;2.92;;
61960;SDS011;47923;42.506;24.192;2023-06-19T08:51:58;5.32;;;2.55;;
61960;SDS011;47923;42.506;24.192;2023-06-19T08:54:24;8.57;;;4.05;;
61960;SDS011;47923;42.506;24.192;2023-06-19T08:56:50;7.47;;;3.38;;
61960;SDS011;47923;42.506;24.192;2023-06-19T08:59:19;6.05;;;3.42;;
61960;SDS011;47923;42.506;24.192;2023-06-19T09:01:49;10.88;;;3.88;;
61960;SDS011;47923;42.506;24.192;2023-06-19T09:04:19;6.60;;;3.22;;
61960;SDS011;47923;42.506;24.192;2023-06-19T09:06:50;7.60;;;3.67;;
61960;SDS011;47923;42.506;24.192;2023-06-19T09:09:27;6.45;;;3.10;;
61960;SDS011;47923;42.506;24.192;2023-06-19T09:12:00;6.35;;;2.88;;
61960;SDS011;47923;42.506;24.192;2023-06-19T09:14:34;6.15;;;2.58;;
61960;SDS011;47923;42.506;24.192;2023-06-19T09:17:04;12.57;;;3.92;;
61960;SDS011;47923;42.506;24.192;2023-06-19T09:19:32;8.30;;;3.40;;
61960;SDS011;47923;42.506;24.192;2023-06-19T09:22:03;9.30;;;3.78;;
61960;SDS011;47923;42.506;24.192;2023-06-19T09:24:37;6.32;;;2.97;;
61960;SDS011;47923;42.506;24.192;2023-06-19T09:29:37;7.47;;;3.30;;
61960;SDS011;47923;42.506;24.192;2023-06-19T09:32:25;6.32;;;3.10;;
61960;SDS011;47923;42.506;24.192;2023-06-19T09:34:54;7.88;;;3.35;;
61960;SDS011;47923;42.506;24.192;2023-06-19T09:37:26;6.28;;;2.85;;
61960;SDS011;47923;42.506;24.192;2023-06-19T09:39:56;3.40;;;2.50;;
61960;SDS011;47923;42.506;24.192;2023-06-19T09:42:24;6.85;;;3.20;;
61960;SDS011;47923;42.506;24.192;2023-06-19T09:44:53;4.60;;;2.70;;
61960;SDS011;47923;42.506;24.192;2023-06-19T09:47:24;9.07;;;2.97;;
61960;SDS011;47923;42.506;24.192;2023-06-19T09:49:54;14.65;;;12.98;;
61960;SDS011;47923;42.506;24.192;2023-06-19T09:52:23;6.70;;;3.28;;
61960;SDS011;47923;42.506;24.192;2023-06-19T09:54:50;8.73;;;3.35;;
61960;SDS011;47923;42.506;24.192;2023-06-19T09:57:16;7.55;;;2.83;;
61960;SDS011;47923;42.506;24.192;2023-06-19T09:59:43;4.80;;;2.72;;
61960;SDS011;47923;42.506;24.192;2023-06-19T10:02:17;6.25;;;3.00;;
61960;SDS011;47923;42.506;24.192;2023-06-19T10:04:46;6.05;;;3.00;;
61960;SDS011;47923;42.506;24.192;2023-06-19T10:07:21;6.70;;;3.08;;
61960;SDS011;47923;42.506;24.192;2023-06-19T10:12:44;3.88;;;2.85;;
61960;SDS011;47923;42.506;24.192;2023-06-19T10:20:28;8.05;;;3.08;;
61960;SDS011;47923;42.506;24.192;2023-06-19T10:25:44;7.50;;;3.30;;
61960;SDS011;47923;42.506;24.192;2023-06-19T10:28:21;6.60;;;3.45;;
61960;SDS011;47923;42.506;24.192;2023-06-19T10:31:07;5.22;;;3.30;;
61960;SDS011;47923;42.506;24.192;2023-06-19T10:33:34;7.60;;;4.25;;
61960;SDS011;47923;42.506;24.192;2023-06-19T10:38:45;8.88;;;4.28;;
61960;SDS011;47923;42.506;24.192;2023-06-19T10:41:21;8.13;;;4.13;;
61960;SDS011;47923;42.506;24.192;2023-06-19T10:46:22;6.85;;;4.47;;
61960;SDS011;47923;42.506;24.192;2023-06-19T10:48:52;6.90;;;3.85;;
61960;SDS011;47923;42.506;24.192;2023-06-19T10:51:24;18.33;;;5.35;;
61960;SDS011;47923;42.506;24.192;2023-06-19T10:53:50;7.80;;;3.90;;
61960;SDS011;47923;42.506;24.192;2023-06-19T10:56:18;8.13;;;3.75;;
61960;SDS011;47923;42.506;24.192;2023-06-19T10:58:45;5.65;;;3.40;;
61960;SDS011;47923;42.506;24.192;2023-06-19T11:01:11;7.07;;;3.67;;
61960;SDS011;47923;42.506;24.192;2023-06-19T11:03:37;8.88;;;3.85;;
61960;SDS011;47923;42.506;24.192;2023-06-19T11:06:02;9.63;;;4.13;;
61960;SDS011;47923;42.506;24.192;2023-06-19T11:08:28;9.60;;;4.03;;
61960;SDS011;47923;42.506;24.192;2023-06-19T11:10:54;6.18;;;3.97;;
61960;SDS011;47923;42.506;24.192;2023-06-19T11:13:20;7.47;;;4.20;;
61960;SDS011;47923;42.506;24.192;2023-06-19T11:15:49;5.75;;;3.67;;
61960;SDS011;47923;42.506;24.192;2023-06-19T11:18:16;7.78;;;3.47;;
61960;SDS011;47923;42.506;24.192;2023-06-19T11:20:49;5.78;;;3.50;;
61960;SDS011;47923;42.506;24.192;2023-06-19T11:23:37;6.05;;;3.47;;
61960;SDS011;47923;42.506;24.192;2023-06-19T11:26:02;6.18;;;3.78;;
61960;SDS011;47923;42.506;24.192;2023-06-19T11:28:29;6.47;;;3.40;;
61960;SDS011;47923;42.506;24.192;2023-06-19T11:30:59;7.20;;;3.80;;
61960;SDS011;47923;42.506;24.192;2023-06-19T11:35:58;8.13;;;3.72;;
61960;SDS011;47923;42.506;24.192;2023-06-19T11:38:26;7.25;;;3.50;;
61960;SDS011;47923;42.506;24.192;2023-06-19T11:40:53;7.07;;;3.92;;
61960;SDS011;47923;42.506;24.192;2023-06-19T11:43:26;6.10;;;3.42;;
61960;SDS011;47923;42.506;24.192;2023-06-19T11:45:53;6.40;;;3.33;;
61960;SDS011;47923;42.506;24.192;2023-06-19T11:48:27;5.38;;;3.50;;
61960;SDS011;47923;42.506;24.192;2023-06-19T11:50:53;10.10;;;3.80;;
61960;SDS011;47923;42.506;24.192;2023-06-19T11:53:19;8.90;;;3.63;;
61960;SDS011;47923;42.506;24.192;2023-06-19T11:55:49;6.43;;;3.35;;
61960;SDS011;47923;42.506;24.192;2023-06-19T11:58:15;7.47;;;3.05;;
61960;SDS011;47923;42.506;24.192;2023-06-19T12:00:42;7.72;;;3.47;;
61960;SDS011;47923;42.506;24.192;2023-06-19T12:03:08;7.53;;;3.80;;
61960;SDS011;47923;42.506;24.192;2023-06-19T12:05:34;6.22;;;3.50;;
61960;SDS011;47923;42.506;24.192;2023-06-19T12:08:00;6.57;;;3.95;;
61960;SDS011;47923;42.506;24.192;2023-06-19T12:10:29;6.85;;;3.88;;
61960;SDS011;47923;42.506;24.192;2023-06-19T12:12:55;8.93;;;3.70;;
61960;SDS011;47923;42.506;24.192;2023-06-19T12:15:21;7.07;;;3.60;;
61960;SDS011;47923;42.506;24.192;2023-06-19T12:17:48;5.30;;;3.30;;
61960;SDS011;47923;42.506;24.192;2023-06-19T12:20:13;5.45;;;3.40;;
61960;SDS011;47923;42.506;24.192;2023-06-19T12:22:39;5.82;;;3.67;;
61960;SDS011;47923;42.506;24.192;2023-06-19T12:25:05;6.15;;;3.70;;
61960;SDS011;47923;42.506;24.192;2023-06-19T12:27:31;6.38;;;3.83;;
61960;SDS011;47923;42.506;24.192;2023-06-19T12:29:57;6.55;;;3.65;;
61960;SDS011;47923;42.506;24.192;2023-06-19T12:32:23;5.25;;;3.30;;
61960;SDS011;47923;42.506;24.192;2023-06-19T12:34:49;15.45;;;4.55;;
61960;SDS011;47923;42.506;24.192;2023-06-19T12:37:19;7.95;;;3.70;;
61960;SDS011;47923;42.506;24.192;2023-06-19T12:39:45;8.10;;;3.70;;
61960;SDS011;47923;42.506;24.192;2023-06-19T12:42:11;7.15;;;3.67;;
61960;SDS011;47923;42.506;24.192;2023-06-19T12:44:40;6.93;;;3.72;;
61960;SDS011;47923;42.506;24.192;2023-06-19T12:47:07;6.32;;;3.97;;
61960;SDS011;47923;42.506;24.192;2023-06-19T12:49:33;5.90;;;3.58;;
61960;SDS011;47923;42.506;24.192;2023-06-19T12:51:59;9.38;;;3.78;;
61960;SDS011;47923;42.506;24.192;2023-06-19T12:54:25;7.25;;;3.60;;
61960;SDS011;47923;42.506;24.192;2023-06-19T12:56:52;7.15;;;3.58;;
61960;SDS011;47923;42.506;24.192;2023-06-19T12:59:17;6.95;;;3.30;;
61960;SDS011;47923;42.506;24.192;2023-06-19T13:01:43;6.80;;;3.20;;
61960;SDS011;47923;42.506;24.192;2023-06-19T13:04:12;6.90;;;3.33;;
61960;SDS011;47923;42.506;24.192;2023-06-19T13:06:38;4.72;;;2.97;;
61960;SDS011;47923;42.506;24.192;2023-06-19T13:09:05;8.35;;;3.25;;
61960;SDS011;47923;42.506;24.192;2023-06-19T13:11:32;5.70;;;3.35;;
61960;SDS011;47923;42.506;24.192;2023-06-19T13:13:59;5.35;;;3.15;;
61960;SDS011;47923;42.506;24.192;2023-06-19T13:16:25;8.43;;;2.95;;
61960;SDS011;47923;42.506;24.192;2023-06-19T13:18:51;6.97;;;2.97;;
61960;SDS011;47923;42.506;24.192;2023-06-19T13:21:17;6.10;;;3.22;;
61960;SDS011;47923;42.506;24.192;2023-06-19T13:23:43;6.55;;;3.17;;
61960;SDS011;47923;42.506;24.192;2023-06-19T13:26:09;6.53;;;3.35;;
61960;SDS011;47923;42.506;24.192;2023-06-19T13:28:35;11.02;;;4.22;;
61960;SDS011;47923;42.506;24.192;2023-06-19T13:31:02;7.68;;;3.55;;
61960;SDS011;47923;42.506;24.192;2023-06-19T13:33:28;6.75;;;3.03;;
61960;SDS011;47923;42.506;24.192;2023-06-19T13:35:54;10.13;;;3.67;;
61960;SDS011;47923;42.506;24.192;2023-06-19T13:38:20;5.38;;;3.35;;
61960;SDS011;47923;42.506;24.192;2023-06-19T13:40:46;7.78;;;3.10;;
61960;SDS011;47923;42.506;24.192;2023-06-19T13:43:12;6.82;;;3.13;;
61960;SDS011;47923;42.506;24.192;2023-06-19T13:45:37;4.88;;;3.05;;
61960;SDS011;47923;42.506;24.192;2023-06-19T13:48:04;10.35;;;3.28;;
61960;SDS011;47923;42.506;24.192;2023-06-19T13:50:32;5.95;;;3.75;;
61960;SDS011;47923;42.506;24.192;2023-06-19T13:52:59;5.03;;;3.08;;
61960;SDS011;47923;42.506;24.192;2023-06-19T13:55:25;6.43;;;3.03;;
61960;SDS011;47923;42.506;24.192;2023-06-19T13:57:51;6.78;;;3.40;;
61960;SDS011;47923;42.506;24.192;2023-06-19T14:00:17;6.60;;;2.92;;
61960;SDS011;47923;42.506;24.192;2023-06-19T14:02:43;5.32;;;3.30;;
61960;SDS011;47923;42.506;24.192;2023-06-19T14:05:09;9.23;;;3.42;;
61960;SDS011;47923;42.506;24.192;2023-06-19T14:07:35;5.20;;;2.92;;
61960;SDS011;47923;42.506;24.192;2023-06-19T14:10:02;13.52;;;3.25;;
61960;SDS011;47923;42.506;24.192;2023-06-19T14:12:29;5.93;;;3.10;;
61960;SDS011;47923;42.506;24.192;2023-06-19T14:14:55;5.25;;;2.92;;
61960;SDS011;47923;42.506;24.192;2023-06-19T14:17:21;8.85;;;3.40;;
61960;SDS011;47923;42.506;24.192;2023-06-19T14:19:47;4.15;;;2.72;;
61960;SDS011;47923;42.506;24.192;2023-06-19T14:22:12;7.03;;;2.85;;
61960;SDS011;47923;42.506;24.192;2023-06-19T14:24:38;5.63;;;3.05;;
61960;SDS011;47923;42.506;24.192;2023-06-19T14:27:04;15.18;;;4.28;;
61960;SDS011;47923;42.506;24.192;2023-06-19T14:29:30;5.47;;;2.72;;
61960;SDS011;47923;42.506;24.192;2023-06-19T14:31:55;8.77;;;3.55;;
61960;SDS011;47923;42.506;24.192;2023-06-19T14:34:21;13.77;;;3.88;;
61960;SDS011;47923;42.506;24.192;2023-06-19T14:36:47;7.15;;;3.08;;
61960;SDS011;47923;42.506;24.192;2023-06-19T14:39:12;18.02;;;4.50;;
61960;SDS011;47923;42.506;24.192;2023-06-19T14:41:39;12.18;;;3.45;;
61960;SDS011;47923;42.506;24.192;2023-06-19T14:44:05;5.18;;;2.90;;
61960;SDS011;47923;42.506;24.192;2023-06-19T14:46:33;4.97;;;2.67;;
61960;SDS011;47923;42.506;24.192;2023-06-19T14:49:04;10.30;;;3.22;;
61960;SDS011;47923;42.506;24.192;2023-06-19T14:51:30;5.93;;;3.28;;